createdAt,value
2018-08-16T11:53:08.264Z,68.00
2018-08-16T11:54:08.288Z,64.00
2018-08-16T11:54:38.763Z,68.00
2018-08-16T11:55:38.783Z,68.00
2018-08-16T11:56:38.752Z,52.00
2018-08-16T11:57:38.747Z,68.00
2018-08-16T11:58:38.788Z,68.00
2018-08-16T11:59:38.732Z,64.00
2018-08-16T12:00:38.746Z,72.00
2018-08-16T12:01:38.709Z,68.00
2018-08-16T12:02:38.700Z,72.00
2018-08-16T12:03:38.687Z,72.00
2018-08-16T12:04:38.705Z,116.00
2018-08-16T12:05:38.674Z,56.00
2018-08-16T12:06:38.689Z,60.00
2018-08-16T12:07:38.657Z,60.00
2018-08-16T12:08:38.649Z,60.00
2018-08-16T12:09:38.641Z,56.00
2018-08-16T12:10:38.644Z,56.00
2018-08-16T12:11:38.647Z,60.00
2018-08-16T12:12:38.619Z,56.00
2018-08-16T12:13:38.609Z,60.00
2018-08-16T12:14:38.620Z,60.00
2018-08-16T12:15:38.596Z,60.00
2018-08-16T12:16:38.608Z,60.00
2018-08-16T12:17:38.580Z,56.00
2018-08-16T12:18:38.574Z,56.00
2018-08-16T12:19:38.569Z,56.00
2018-08-16T12:20:38.586Z,56.00
2018-08-16T12:21:38.557Z,56.00
2018-08-16T12:22:38.568Z,56.00
2018-08-16T12:23:38.542Z,56.00
2018-08-16T12:24:38.533Z,56.00
2018-08-16T12:25:38.543Z,60.00
2018-08-16T12:26:38.526Z,56.00
2018-08-16T12:27:38.543Z,60.00
2018-08-16T12:28:38.520Z,56.00
2018-08-16T12:29:38.513Z,56.00
2018-08-16T12:30:38.509Z,56.00
2018-08-16T12:31:38.532Z,60.00
2018-08-16T12:34:16.682Z,8856.00
2018-08-16T12:35:16.658Z,8948.00
2018-08-16T12:36:16.648Z,9052.00
2018-08-16T12:37:16.663Z,9080.00
2018-08-16T12:38:16.629Z,8976.00
2018-08-16T12:39:16.614Z,8924.00
2018-08-16T12:40:16.606Z,8788.00
2018-08-16T12:41:16.631Z,8852.00
2018-08-16T12:42:16.680Z,8928.00
2018-08-16T12:43:16.571Z,8832.00
2018-08-16T12:44:16.560Z,9060.00
2018-08-16T12:45:16.571Z,9212.00
2018-08-16T12:46:16.604Z,9268.00
2018-08-16T12:47:16.536Z,9040.00
2018-08-16T12:48:16.540Z,8968.00
2018-08-16T12:49:16.512Z,9024.00
2018-08-16T12:50:16.495Z,9008.00
2018-08-16T12:51:16.486Z,9032.00
2018-08-16T12:52:16.478Z,9108.00
2018-08-16T12:53:16.485Z,9044.00
2018-08-16T12:54:16.455Z,9448.00
2018-08-16T12:55:16.457Z,9236.00
2018-08-16T12:56:16.433Z,9092.00
2018-08-16T12:57:16.431Z,9036.00
2018-08-16T12:58:16.415Z,9024.00
2018-08-16T12:59:16.401Z,9080.00
2018-08-16T13:00:16.404Z,9136.00
2018-08-16T13:01:16.383Z,9236.00
2018-08-16T13:02:16.371Z,9344.00
2018-08-16T13:03:16.363Z,9380.00
2018-08-16T13:04:16.354Z,9408.00
2018-08-16T13:05:16.351Z,9312.00
2018-08-16T13:06:16.332Z,9324.00
2018-08-16T13:07:16.316Z,9256.00
2018-08-16T13:08:16.333Z,9280.00
2018-08-16T13:09:16.300Z,9360.00
2018-08-16T13:10:16.285Z,9432.00
2018-08-16T13:11:16.306Z,9516.00
2018-08-16T13:12:16.265Z,9536.00
2018-08-16T13:13:16.254Z,9412.00
2018-08-16T13:14:16.243Z,9120.00
2018-08-16T13:15:16.233Z,8688.00
2018-08-16T13:16:16.239Z,8828.00
2018-08-16T13:17:16.213Z,8024.00
2018-08-16T13:18:16.223Z,8736.00
2018-08-16T13:19:16.191Z,8696.00
2018-08-16T13:20:16.181Z,8840.00
2018-08-16T13:21:16.169Z,8160.00
2018-08-16T13:22:16.161Z,8144.00
2018-08-16T13:23:16.172Z,8276.00
2018-08-16T13:24:16.138Z,8268.00
2018-08-16T13:25:16.130Z,8364.00
2018-08-16T13:26:16.120Z,8408.00
2018-08-16T13:27:16.125Z,8932.00
2018-08-16T13:28:16.113Z,8900.00
2018-08-16T13:29:16.110Z,9192.00
2018-08-16T13:30:16.076Z,9180.00
2018-08-16T13:31:16.170Z,9400.00
2018-08-16T13:32:16.059Z,9496.00
2018-08-16T13:33:16.050Z,9744.00
2018-08-16T13:34:16.061Z,9696.00
2018-08-16T13:35:16.027Z,9924.00
2018-08-16T13:36:16.026Z,10280.00
2018-08-16T13:37:16.097Z,21952.00
2018-08-16T13:38:16.022Z,22400.00
2018-08-16T13:39:15.992Z,21376.00
2018-08-16T13:40:15.988Z,18144.00
2018-08-16T13:41:15.975Z,17088.00
2018-08-16T13:42:15.980Z,25184.00
2018-08-16T13:43:15.977Z,25856.00
2018-08-16T13:44:15.946Z,25824.00
2018-08-16T13:45:15.963Z,25408.00
2018-08-16T13:46:15.939Z,25088.00
2018-08-16T13:47:15.935Z,24960.00
2018-08-16T13:48:15.986Z,24352.00
2018-08-16T13:49:15.918Z,23936.00
2018-08-16T13:50:15.920Z,23616.00
2018-08-16T13:51:15.900Z,23136.00
2018-08-16T13:52:15.884Z,22656.00
2018-08-16T13:53:15.867Z,22048.00
2018-08-16T13:54:15.909Z,21792.00
2018-08-16T13:55:15.853Z,21824.00
2018-08-16T13:56:15.847Z,21504.00
2018-08-16T13:57:15.866Z,20864.00
2018-08-16T13:58:15.828Z,20704.00
2018-08-16T13:59:15.837Z,20064.00
2018-08-16T14:00:15.807Z,18688.00
2018-08-16T14:01:15.825Z,18624.00
2018-08-16T14:02:15.786Z,16128.00
2018-08-16T14:03:15.779Z,10732.00
2018-08-16T14:04:15.771Z,7608.00
2018-08-16T14:05:15.754Z,7052.00
2018-08-16T14:06:15.764Z,6724.00
2018-08-16T14:07:15.785Z,6552.00
2018-08-16T14:08:15.733Z,6296.00
2018-08-16T14:09:15.719Z,6336.00
2018-08-16T14:10:15.704Z,5772.00
2018-08-16T14:11:15.724Z,5552.00
2018-08-16T14:12:15.692Z,5484.00
2018-08-16T14:13:15.721Z,5488.00
2018-08-16T14:14:15.663Z,5408.00
2018-08-16T14:15:15.653Z,5296.00
2018-08-16T14:16:15.646Z,5196.00
2018-08-16T14:17:15.639Z,5140.00
2018-08-16T14:18:15.655Z,5172.00
2018-08-16T14:19:15.617Z,5148.00
2018-08-16T14:20:15.604Z,4948.00
2018-08-16T14:21:15.591Z,5336.00
2018-08-16T14:22:15.585Z,5204.00
2018-08-16T14:23:15.597Z,5256.00
2018-08-16T14:24:15.571Z,5108.00
2018-08-16T14:25:15.550Z,4844.00
2018-08-16T14:26:15.574Z,4996.00
2018-08-16T14:27:15.565Z,4968.00
2018-08-16T14:28:15.525Z,4960.00
2018-08-16T14:29:15.573Z,4884.00
2018-08-16T14:30:15.501Z,4952.00
2018-08-16T14:31:15.489Z,4996.00
2018-08-16T14:32:15.507Z,4988.00
2018-08-16T14:33:15.489Z,4684.00
2018-08-16T14:34:15.456Z,4424.00
2018-08-16T14:35:15.448Z,4388.00
2018-08-16T14:36:15.453Z,4252.00
2018-08-16T14:37:15.468Z,4152.00
2018-08-16T14:38:15.441Z,4284.00
2018-08-16T14:39:15.406Z,4484.00
2018-08-16T14:40:15.392Z,4468.00
2018-08-16T14:41:15.396Z,4448.00
2018-08-16T14:42:15.409Z,4284.00
2018-08-16T14:43:15.367Z,4204.00
2018-08-16T14:44:15.355Z,4216.00
2018-08-16T14:45:15.340Z,4144.00
2018-08-16T14:46:15.372Z,4272.00
2018-08-16T14:47:15.321Z,4412.00
2018-08-16T14:48:15.323Z,4224.00
2018-08-16T14:49:15.307Z,4560.00
2018-08-16T14:50:15.292Z,4600.00
2018-08-16T14:51:15.363Z,4352.00
2018-08-16T14:52:15.273Z,4308.00
2018-08-16T14:53:15.278Z,4276.00
2018-08-16T14:54:15.255Z,4616.00
2018-08-16T14:55:15.239Z,4612.00
2018-08-16T14:56:15.259Z,4200.00
2018-08-16T14:57:15.222Z,4168.00
2018-08-16T14:58:15.205Z,4124.00
2018-08-16T14:59:15.192Z,4248.00
2018-08-16T15:00:15.186Z,4160.00
2018-08-16T15:01:15.200Z,4072.00
2018-08-16T15:02:15.161Z,4280.00
2018-08-16T15:03:15.162Z,4348.00
2018-08-16T15:04:15.161Z,4280.00
2018-08-16T15:05:15.199Z,4432.00
2018-08-16T15:06:15.146Z,4392.00
2018-08-16T15:44:22.563Z,5464.00
2018-08-16T15:45:22.527Z,5264.00
2018-08-16T15:46:22.521Z,5152.00
2018-08-16T15:47:22.501Z,4772.00
2018-08-16T15:48:22.495Z,4276.00
2018-08-16T15:49:22.510Z,4308.00
2018-08-16T15:50:22.471Z,4224.00
2018-08-16T15:51:22.459Z,4132.00
2018-08-16T15:52:22.470Z,4288.00
2018-08-16T15:53:22.439Z,4552.00
2018-08-16T15:54:22.427Z,4704.00
2018-08-16T15:55:22.440Z,4928.00
2018-08-16T15:56:22.430Z,4440.00
2018-08-16T15:57:22.395Z,3988.00
2018-08-16T15:58:22.385Z,3728.00
2018-08-16T15:59:22.376Z,3772.00
2018-08-16T16:00:22.395Z,3716.00
2018-08-16T16:01:22.358Z,3780.00
2018-08-16T16:02:22.344Z,3800.00
2018-08-16T16:03:22.335Z,3804.00
2018-08-16T16:04:22.326Z,3628.00
2018-08-16T16:05:22.380Z,3664.00
2018-08-16T16:06:22.341Z,3252.00
2018-08-16T16:07:22.318Z,3052.00
2018-08-16T16:08:22.280Z,2904.00
2018-08-16T16:09:22.273Z,3036.00
2018-08-16T16:10:22.260Z,3004.00
2018-08-16T16:11:22.273Z,3092.00
2018-08-16T16:12:22.238Z,3156.00
2018-08-16T16:13:22.227Z,3296.00
2018-08-16T16:14:22.250Z,3384.00
2018-08-16T16:15:22.207Z,3416.00
2018-08-16T16:16:22.200Z,3292.00
2018-08-16T16:17:22.256Z,3320.00
2018-08-16T16:18:22.177Z,3268.00
2018-08-16T16:19:22.378Z,3456.00
2018-08-16T16:20:22.153Z,3488.00
2018-08-16T16:21:22.146Z,3408.00
2018-08-16T16:22:22.174Z,3392.00
2018-08-16T16:23:22.126Z,3260.00
2018-08-16T16:24:22.177Z,3080.00
2018-08-16T16:25:22.183Z,2860.00
2018-08-16T16:26:22.098Z,2876.00
2018-08-16T16:27:22.082Z,2832.00
2018-08-16T16:28:22.068Z,2904.00
2018-08-16T16:29:22.083Z,2880.00
2018-08-16T16:30:22.048Z,3036.00
2018-08-16T16:31:22.060Z,3008.00
2018-08-16T16:32:22.051Z,3116.00
2018-08-16T16:33:22.017Z,3096.00
2018-08-16T16:34:22.006Z,3124.00
2018-08-16T16:35:21.995Z,3060.00
2018-08-16T16:36:21.985Z,3008.00
2018-08-16T16:37:21.996Z,2968.00
2018-08-16T16:38:21.984Z,2772.00
2018-08-16T16:39:21.980Z,2968.00
2018-08-16T16:40:21.945Z,3112.00
2018-08-16T16:41:21.932Z,2960.00
2018-08-16T16:42:21.929Z,2960.00
2018-08-16T16:43:21.910Z,2908.00
2018-08-16T16:44:22.140Z,2856.00
2018-08-16T16:45:21.893Z,2788.00
2018-08-16T16:46:21.887Z,2720.00
2018-08-16T16:47:21.869Z,2620.00
2018-08-16T16:48:21.861Z,2520.00
2018-08-16T16:49:21.870Z,2420.00
2018-08-16T16:50:21.836Z,2324.00
2018-08-16T16:51:21.826Z,2152.00
2018-08-16T16:52:21.914Z,2016.00
2018-08-16T16:53:21.805Z,2052.00
2018-08-16T16:54:22.186Z,1976.00
2018-08-16T16:55:21.784Z,1956.00
2018-08-16T16:56:21.777Z,1888.00
2018-08-16T16:57:21.761Z,1828.00
2018-08-16T16:58:22.181Z,1744.00
2018-08-16T16:59:21.862Z,1692.00
2018-08-16T17:00:21.731Z,1608.00
2018-08-16T17:01:21.719Z,1576.00
2018-08-16T17:02:21.712Z,1552.00
2018-08-16T17:03:21.703Z,1484.00
2018-08-16T17:04:21.712Z,1444.00
2018-08-16T17:05:21.681Z,1428.00
2018-08-16T17:06:21.671Z,1368.00
2018-08-16T17:07:21.733Z,1336.00
2018-08-16T17:08:21.649Z,1296.00
2018-08-16T17:09:21.660Z,1256.00
2018-08-16T17:10:21.699Z,1216.00
2018-08-16T17:11:21.612Z,1184.00
2018-08-16T17:12:21.626Z,1148.00
2018-08-16T17:13:21.828Z,1120.00
2018-08-16T17:14:21.582Z,1084.00
2018-08-16T17:15:21.576Z,1060.00
2018-08-16T17:16:21.644Z,1036.00
2018-08-16T17:17:21.549Z,1016.00
2018-08-16T17:18:21.565Z,996.00
2018-08-16T17:19:21.528Z,976.00
2018-08-16T17:20:21.530Z,948.00
2018-08-16T17:21:21.534Z,924.00
2018-08-16T17:22:21.524Z,908.00
2018-08-16T17:23:21.488Z,884.00
2018-08-16T17:24:21.497Z,868.00
2018-08-16T17:25:21.467Z,840.00
2018-08-16T17:26:21.474Z,820.00
2018-08-16T17:27:21.464Z,804.00
2018-08-16T17:28:21.431Z,792.00
2018-08-16T17:29:21.449Z,780.00
2018-08-16T17:30:21.410Z,776.00
2018-08-16T17:31:21.400Z,764.00
2018-08-16T17:32:21.415Z,760.00
2018-08-16T17:33:21.380Z,752.00
2018-08-16T17:34:21.390Z,740.00
2018-08-16T17:35:21.357Z,732.00
2018-08-16T17:36:21.350Z,716.00
2018-08-16T17:37:21.338Z,704.00
2018-08-16T17:38:21.325Z,688.00
2018-08-16T17:39:21.339Z,668.00
2018-08-16T17:40:21.305Z,644.00
2018-08-16T17:41:21.292Z,628.00
2018-08-16T17:42:21.283Z,616.00
2018-08-16T17:43:21.271Z,596.00
2018-08-16T17:44:21.286Z,584.00
2018-08-16T17:45:21.249Z,576.00
2018-08-16T17:46:21.239Z,576.00
2018-08-16T17:47:21.228Z,572.00
2018-08-16T17:48:21.224Z,576.00
2018-08-16T17:49:21.232Z,572.00
2018-08-16T17:50:21.202Z,560.00
2018-08-16T17:51:21.186Z,552.00
2018-08-16T17:52:21.176Z,544.00
2018-08-16T17:53:21.164Z,536.00
2018-08-16T17:54:21.177Z,528.00
2018-08-16T17:55:21.283Z,516.00
2018-08-16T17:56:21.137Z,500.00
2018-08-16T17:57:21.121Z,496.00
2018-08-16T17:58:21.147Z,488.00
2018-08-16T17:59:21.104Z,480.00
2018-08-16T18:00:21.090Z,468.00
2018-08-16T18:01:21.081Z,452.00
2018-08-16T18:02:21.069Z,444.00
2018-08-16T18:03:21.090Z,428.00
2018-08-16T18:04:21.052Z,420.00
2018-08-16T18:05:21.043Z,408.00
2018-08-16T18:06:21.026Z,396.00
2018-08-16T18:07:21.017Z,384.00
2018-08-16T18:08:21.029Z,376.00
2018-08-16T18:09:20.994Z,364.00
2018-08-16T18:10:21.007Z,352.00
2018-08-16T18:11:20.976Z,340.00
2018-08-16T18:12:20.980Z,328.00
2018-08-16T18:13:20.949Z,316.00
2018-08-16T18:14:20.954Z,304.00
2018-08-16T18:15:20.929Z,288.00
2018-08-16T18:16:20.946Z,272.00
2018-08-16T18:17:20.928Z,252.00
2018-08-16T18:18:20.902Z,232.00
2018-08-16T18:19:20.887Z,212.00
2018-08-16T18:20:20.874Z,196.00
2018-08-16T18:21:20.873Z,180.00
2018-08-16T18:22:20.904Z,172.00
2018-08-16T18:23:20.846Z,160.00
2018-08-16T18:24:20.880Z,156.00
2018-08-16T18:25:20.821Z,152.00
2018-08-16T18:26:20.807Z,144.00
2018-08-16T18:27:20.827Z,132.00
2018-08-16T18:28:20.792Z,124.00
2018-08-16T18:29:20.799Z,116.00
2018-08-16T18:30:20.770Z,108.00
2018-08-16T18:31:20.755Z,104.00
2018-08-16T18:32:20.768Z,96.00
2018-08-16T18:33:20.733Z,88.00
2018-08-16T18:34:20.928Z,80.00
2018-08-16T18:35:20.713Z,72.00
2018-08-16T18:36:20.703Z,68.00
2018-08-16T18:37:20.738Z,60.00
2018-08-16T18:38:20.678Z,56.00
2018-08-16T18:39:20.670Z,52.00
2018-08-16T18:40:20.661Z,48.00
2018-08-16T18:41:20.650Z,44.00
2018-08-16T18:42:20.680Z,40.00
2018-08-16T18:43:20.624Z,36.00
2018-08-16T18:44:20.613Z,28.00
2018-08-16T18:45:20.604Z,28.00
2018-08-16T18:46:20.596Z,24.00
2018-08-16T18:47:20.617Z,24.00
2018-08-16T18:48:20.570Z,20.00
2018-08-16T18:49:20.571Z,20.00
2018-08-16T18:50:20.552Z,16.00
2018-08-16T18:51:21.264Z,16.00
2018-08-16T18:52:21.695Z,12.00
2018-08-16T18:53:20.524Z,12.00
2018-08-16T18:54:20.511Z,12.00
2018-08-16T18:55:20.495Z,8.00
2018-08-16T18:56:20.484Z,8.00
2018-08-16T18:57:20.499Z,4.00
2018-08-16T18:58:20.464Z,8.00
2018-08-16T18:59:20.477Z,4.00
2018-08-16T19:00:20.441Z,4.00
2018-08-16T19:01:20.435Z,4.00
2018-08-16T19:02:20.443Z,4.00
2018-08-16T19:03:20.410Z,4.00
2018-08-16T19:04:27.570Z,4.00
2018-08-16T19:05:20.512Z,0.00
2018-08-16T19:06:20.384Z,4.00
2018-08-16T19:07:20.408Z,4.00
2018-08-16T19:08:20.358Z,4.00
2018-08-16T19:09:27.513Z,0.00
2018-08-16T19:10:20.363Z,0.00
2018-08-16T19:11:20.325Z,0.00
2018-08-16T19:12:20.310Z,0.00
2018-08-16T19:13:20.412Z,0.00
2018-08-16T19:14:20.297Z,0.00
2018-08-16T19:15:20.304Z,0.00
2018-08-16T19:16:20.269Z,0.00
2018-08-16T19:17:29.227Z,0.00
2018-08-16T19:18:20.246Z,0.00
2018-08-16T19:19:20.235Z,0.00
2018-08-16T19:20:20.244Z,0.00
2018-08-16T19:21:20.210Z,0.00
2018-08-16T19:22:20.228Z,0.00
2018-08-16T19:23:20.199Z,0.00
2018-08-16T19:24:20.202Z,0.00
2018-08-16T19:25:20.166Z,0.00
2018-08-16T19:26:20.152Z,0.00
2018-08-16T19:27:20.187Z,0.00
2018-08-16T19:28:20.130Z,0.00
2018-08-16T19:29:20.120Z,0.00
2018-08-16T19:30:20.111Z,0.00
2018-08-16T19:31:27.133Z,0.00
2018-08-16T19:32:20.108Z,0.00
2018-08-16T19:33:20.071Z,0.00
2018-08-16T19:34:20.061Z,0.00
2018-08-16T19:35:20.049Z,0.00
2018-08-16T19:36:20.053Z,0.00
2018-08-16T19:37:20.032Z,0.00
2018-08-16T19:38:20.016Z,0.00
2018-08-16T19:39:20.006Z,0.00
2018-08-16T19:40:20.032Z,0.00
2018-08-16T19:41:20.109Z,0.00
2018-08-16T19:42:19.978Z,0.00
2018-08-16T19:43:19.962Z,0.00
2018-08-16T19:44:19.952Z,0.00
2018-08-16T19:45:19.939Z,0.00
2018-08-16T19:46:19.949Z,0.00
2018-08-16T19:47:19.924Z,0.00
2018-08-16T19:48:19.974Z,0.00
2018-08-16T19:49:19.906Z,0.00
2018-08-16T19:50:19.891Z,0.00
2018-08-16T19:51:19.895Z,0.00
2018-08-16T19:52:20.235Z,0.00
2018-08-16T19:53:19.853Z,0.00
2018-08-16T19:54:19.846Z,0.00
2018-08-16T19:55:20.135Z,0.00
2018-08-16T19:56:19.836Z,0.00
2018-08-16T19:57:19.815Z,0.00
2018-08-16T19:58:19.801Z,0.00
2018-08-16T19:59:19.789Z,0.00
2018-08-16T20:00:19.783Z,0.00
2018-08-16T20:01:19.919Z,0.00
2018-08-16T20:02:19.758Z,0.00
2018-08-16T20:03:19.748Z,0.00
2018-08-16T20:04:19.737Z,0.00
2018-08-16T20:05:19.725Z,0.00
2018-08-16T20:06:19.745Z,0.00
2018-08-16T20:07:19.710Z,0.00
2018-08-16T20:08:19.700Z,0.00
2018-08-16T20:09:19.680Z,0.00
2018-08-16T20:10:19.672Z,0.00
2018-08-16T20:11:19.698Z,0.00
2018-08-16T20:12:19.647Z,0.00
2018-08-16T20:13:19.805Z,0.00
2018-08-16T20:14:19.626Z,0.00
2018-08-16T20:15:19.618Z,0.00
2018-08-16T20:16:19.624Z,0.00
2018-08-16T20:17:19.619Z,0.00
2018-08-16T20:18:19.582Z,0.00
2018-08-16T20:19:19.585Z,0.00
2018-08-16T20:20:19.559Z,0.00
2018-08-16T20:21:19.552Z,0.00
2018-08-16T20:22:19.563Z,0.00
2018-08-16T20:23:19.527Z,0.00
2018-08-16T20:24:19.515Z,0.00
2018-08-16T20:25:19.503Z,0.00
2018-08-16T20:26:19.492Z,0.00
2018-08-16T20:27:19.515Z,0.00
2018-08-16T20:28:19.477Z,0.00
2018-08-16T20:29:19.462Z,0.00
2018-08-16T20:30:19.582Z,0.00
2018-08-16T20:31:19.437Z,0.00
2018-08-16T20:32:19.460Z,0.00
2018-08-16T20:33:19.417Z,0.00
2018-08-16T20:34:19.405Z,0.00
2018-08-16T20:35:19.393Z,0.00
2018-08-16T20:36:19.386Z,0.00
2018-08-16T20:37:19.394Z,0.00
2018-08-16T20:38:19.360Z,0.00
2018-08-16T20:39:19.353Z,0.00
2018-08-16T20:40:19.379Z,0.00
2018-08-16T20:41:19.327Z,0.00
2018-08-16T20:42:19.325Z,0.00
2018-08-16T20:43:19.343Z,0.00
2018-08-16T20:44:19.298Z,0.00
2018-08-16T20:45:19.314Z,0.00
2018-08-16T20:46:19.271Z,0.00
2018-08-16T20:47:19.261Z,0.00
2018-08-16T20:48:19.250Z,0.00
2018-08-16T20:49:19.238Z,0.00
2018-08-16T20:50:19.259Z,0.00
2018-08-16T20:51:19.221Z,0.00
2018-08-16T20:52:19.205Z,0.00
2018-08-16T20:53:19.200Z,0.00
2018-08-16T20:54:19.183Z,0.00
2018-08-16T20:55:19.197Z,0.00
2018-08-16T20:56:19.192Z,0.00
2018-08-16T20:57:19.226Z,0.00
2018-08-16T20:58:19.141Z,0.00
2018-08-16T20:59:19.132Z,0.00
2018-08-16T21:00:19.116Z,0.00
2018-08-16T21:01:19.136Z,0.00
2018-08-16T21:02:19.096Z,0.00
2018-08-16T21:03:19.084Z,0.00
2018-08-16T21:04:19.074Z,0.00
2018-08-16T21:05:19.088Z,0.00
2018-08-16T21:06:19.077Z,0.00
2018-08-16T21:07:19.040Z,0.00
2018-08-16T21:08:19.029Z,0.00
2018-08-16T21:09:19.022Z,0.00
2018-08-16T21:10:19.081Z,0.00
2018-08-16T21:11:19.036Z,0.00
2018-08-16T21:12:18.985Z,0.00
2018-08-16T21:13:18.978Z,0.00
2018-08-16T21:14:18.965Z,0.00
2018-08-16T21:15:18.951Z,0.00
2018-08-16T21:16:18.962Z,0.00
2018-08-16T21:17:18.963Z,0.00
2018-08-16T21:18:18.918Z,0.00
2018-08-16T21:19:18.907Z,0.00
2018-08-16T21:20:18.900Z,0.00
2018-08-16T21:21:18.887Z,0.00
2018-08-16T21:22:18.896Z,0.00
2018-08-16T21:23:18.866Z,0.00
2018-08-16T21:24:18.912Z,0.00
2018-08-16T21:25:18.843Z,0.00
2018-08-16T21:26:18.855Z,0.00
2018-08-16T21:27:18.821Z,0.00
2018-08-16T21:28:18.813Z,0.00
2018-08-16T21:29:18.804Z,0.00
2018-08-16T21:30:18.787Z,0.00
2018-08-16T21:31:18.788Z,0.00
2018-08-16T21:32:18.764Z,0.00
2018-08-16T21:33:18.753Z,0.00
2018-08-16T21:34:18.743Z,0.00
2018-08-16T21:35:18.734Z,0.00
2018-08-16T21:36:18.745Z,0.00
2018-08-16T21:37:18.730Z,0.00
2018-08-16T21:38:18.699Z,0.00
2018-08-16T21:39:18.688Z,0.00
2018-08-16T21:40:18.700Z,0.00
2018-08-16T21:41:18.664Z,0.00
2018-08-16T21:42:18.676Z,0.00
2018-08-16T21:43:18.642Z,0.00
2018-08-16T21:44:18.643Z,0.00
2018-08-16T21:45:18.620Z,0.00
2018-08-16T21:46:18.610Z,0.00
2018-08-16T21:47:18.619Z,0.00
2018-08-16T21:48:18.614Z,0.00
2018-08-16T21:49:18.576Z,0.00
2018-08-16T21:50:18.566Z,0.00
2018-08-16T21:51:18.554Z,0.00
2018-08-16T21:52:18.543Z,0.00
2018-08-16T21:53:18.554Z,0.00
2018-08-16T21:54:18.521Z,0.00
2018-08-16T21:55:18.511Z,0.00
2018-08-16T21:56:18.499Z,0.00
2018-08-16T21:57:18.487Z,0.00
2018-08-16T21:58:18.491Z,0.00
2018-08-16T21:59:18.469Z,0.00
2018-08-16T22:00:18.480Z,0.00
2018-08-16T22:01:18.461Z,0.00
2018-08-16T22:02:18.434Z,0.00
2018-08-16T22:03:18.426Z,0.00
2018-08-16T22:04:18.413Z,0.00
2018-08-16T22:05:18.400Z,0.00
2018-08-16T22:06:18.405Z,0.00
2018-08-16T22:07:18.380Z,0.00
2018-08-16T22:08:18.369Z,0.00
2018-08-16T22:09:18.358Z,0.00
2018-08-16T22:10:18.349Z,0.00
2018-08-16T22:11:18.358Z,0.00
2018-08-16T22:12:18.328Z,0.00
2018-08-16T22:13:18.313Z,0.00
2018-08-16T22:14:18.305Z,0.00
2018-08-16T22:15:18.312Z,0.00
2018-08-16T22:16:18.284Z,0.00
2018-08-16T22:17:18.274Z,0.00
2018-08-16T22:18:18.259Z,0.00
2018-08-16T22:19:18.247Z,0.00
2018-08-16T22:20:18.267Z,0.00
2018-08-16T22:21:18.229Z,0.00
2018-08-16T22:22:18.214Z,0.00
2018-08-16T22:23:18.204Z,0.00
2018-08-16T22:24:18.193Z,0.00
2018-08-16T22:25:18.203Z,0.00
2018-08-16T22:26:18.205Z,0.00
2018-08-16T22:27:18.160Z,0.00
2018-08-16T22:28:18.163Z,0.00
2018-08-16T22:29:18.141Z,0.00
2018-08-16T22:30:18.133Z,0.00
2018-08-16T22:31:18.141Z,0.00
2018-08-16T22:32:18.107Z,0.00
2018-08-16T22:33:18.095Z,0.00
2018-08-16T22:34:18.114Z,0.00
2018-08-16T22:35:18.073Z,0.00
2018-08-16T22:36:18.062Z,0.00
2018-08-16T22:37:18.049Z,0.00
2018-08-16T22:38:18.042Z,0.00
2018-08-16T22:39:18.050Z,0.00
2018-08-16T22:40:18.018Z,0.00
2018-08-16T22:41:18.009Z,0.00
2018-08-16T22:42:18.017Z,0.00
2018-08-16T22:43:17.984Z,0.00
2018-08-16T22:44:17.974Z,0.00
2018-08-16T22:45:17.962Z,0.00
2018-08-16T22:46:17.983Z,0.00
2018-08-16T22:47:17.941Z,0.00
2018-08-16T22:48:17.932Z,0.00
2018-08-16T22:49:17.918Z,0.00
2018-08-16T22:50:17.909Z,0.00
2018-08-16T22:51:17.919Z,0.00
2018-08-16T22:52:17.886Z,0.00
2018-08-16T22:53:17.875Z,0.00
2018-08-16T22:54:17.865Z,0.00
2018-08-16T22:55:17.853Z,0.00
2018-08-16T22:56:17.872Z,0.00
2018-08-16T22:57:17.832Z,0.00
2018-08-16T22:58:17.821Z,0.00
2018-08-16T22:59:17.809Z,0.00
2018-08-16T23:00:17.803Z,0.00
2018-08-16T23:01:17.822Z,0.00
2018-08-16T23:02:17.776Z,0.00
2018-08-16T23:03:17.766Z,0.00
2018-08-16T23:04:17.755Z,0.00
2018-08-16T23:05:17.864Z,0.00
2018-08-16T23:06:17.758Z,0.00
2018-08-16T23:07:17.722Z,0.00
2018-08-16T23:08:17.710Z,0.00
2018-08-16T23:09:17.699Z,0.00
2018-08-16T23:10:17.703Z,0.00
2018-08-16T23:11:17.678Z,0.00
2018-08-16T23:12:17.667Z,0.00
2018-08-16T23:13:17.694Z,0.00
2018-08-16T23:14:17.645Z,0.00
2018-08-16T23:15:17.634Z,0.00
2018-08-16T23:16:17.623Z,0.00
2018-08-16T23:17:17.614Z,0.00
2018-08-16T23:18:17.623Z,0.00
2018-08-16T23:19:17.611Z,0.00
2018-08-16T23:20:17.581Z,0.00
2018-08-16T23:21:17.568Z,0.00
2018-08-16T23:22:17.557Z,0.00
2018-08-16T23:23:17.546Z,0.00
2018-08-16T23:24:17.574Z,0.00
2018-08-16T23:25:17.524Z,0.00
2018-08-16T23:26:17.512Z,0.00
2018-08-16T23:27:17.501Z,0.00
2018-08-16T23:28:17.496Z,0.00
2018-08-16T23:29:17.500Z,0.00
2018-08-16T23:30:17.468Z,0.00
2018-08-16T23:31:17.457Z,0.00
2018-08-16T23:32:17.447Z,0.00
2018-08-16T23:33:17.436Z,0.00
2018-08-16T23:34:17.438Z,0.00
2018-08-16T23:35:17.418Z,0.00
2018-08-16T23:36:17.404Z,0.00
2018-08-16T23:37:17.414Z,0.00
2018-08-16T23:38:17.380Z,0.00
2018-08-16T23:39:17.369Z,0.00
2018-08-16T23:40:17.381Z,0.00
2018-08-16T23:41:17.349Z,0.00
2018-08-16T23:42:17.338Z,0.00
2018-08-16T23:43:17.386Z,0.00
2018-08-16T23:44:17.316Z,0.00
2018-08-16T23:45:17.304Z,0.00
2018-08-16T23:46:17.292Z,0.00
2018-08-16T23:47:17.282Z,0.00
2018-08-16T23:48:17.292Z,0.00
2018-08-16T23:49:17.261Z,0.00
2018-08-16T23:50:17.250Z,0.00
2018-08-16T23:51:17.237Z,0.00
2018-08-16T23:52:17.227Z,0.00
2018-08-16T23:53:17.238Z,0.00
2018-08-16T23:54:17.205Z,0.00
2018-08-16T23:55:17.197Z,0.00
2018-08-16T23:56:17.183Z,0.00
2018-08-16T23:57:17.192Z,0.00
2018-08-16T23:58:17.164Z,0.00
2018-08-16T23:59:17.176Z,0.00
